sensor_id;sensor_type;location;lat;lon;timestamp;P1;durP1;ratioP1;P2;durP2;ratioP2
29732;SDS011;16643;43.158;25.302;2023-08-17T00:00:11;8.70;;;5.97;;
29732;SDS011;16643;43.158;25.302;2023-08-17T00:02:42;9.43;;;5.38;;
29732;SDS011;16643;43.158;25.302;2023-08-17T00:05:07;8.63;;;5.65;;
29732;SDS011;16643;43.158;25.302;2023-08-17T00:07:34;12.48;;;4.97;;
29732;SDS011;16643;43.158;25.302;2023-08-17T00:10:00;8.48;;;5.30;;
29732;SDS011;16643;43.158;25.302;2023-08-17T00:12:26;7.85;;;5.95;;
29732;SDS011;16643;43.158;25.302;2023-08-17T00:14:52;10.55;;;5.20;;
29732;SDS011;16643;43.158;25.302;2023-08-17T00:17:18;7.43;;;5.50;;
29732;SDS011;16643;43.158;25.302;2023-08-17T00:19:44;10.30;;;6.35;;
29732;SDS011;16643;43.158;25.302;2023-08-17T00:22:09;10.98;;;5.40;;
29732;SDS011;16643;43.158;25.302;2023-08-17T00:24:35;8.93;;;5.28;;
29732;SDS011;16643;43.158;25.302;2023-08-17T00:27:01;14.10;;;5.35;;
29732;SDS011;16643;43.158;25.302;2023-08-17T00:29:26;7.07;;;5.22;;
29732;SDS011;16643;43.158;25.302;2023-08-17T00:31:52;11.32;;;5.68;;
29732;SDS011;16643;43.158;25.302;2023-08-17T00:34:18;9.43;;;5.78;;
29732;SDS011;16643;43.158;25.302;2023-08-17T00:36:44;9.57;;;6.03;;
29732;SDS011;16643;43.158;25.302;2023-08-17T00:39:10;12.90;;;5.60;;
29732;SDS011;16643;43.158;25.302;2023-08-17T00:41:36;7.90;;;5.82;;
29732;SDS011;16643;43.158;25.302;2023-08-17T00:44:01;9.20;;;5.78;;
29732;SDS011;16643;43.158;25.302;2023-08-17T00:46:27;8.98;;;5.57;;
29732;SDS011;16643;43.158;25.302;2023-08-17T00:48:54;8.23;;;5.93;;
29732;SDS011;16643;43.158;25.302;2023-08-17T00:51:24;10.00;;;5.45;;
29732;SDS011;16643;43.158;25.302;2023-08-17T00:53:51;11.38;;;6.10;;
29732;SDS011;16643;43.158;25.302;2023-08-17T00:56:18;8.80;;;5.55;;
29732;SDS011;16643;43.158;25.302;2023-08-17T00:58:44;13.38;;;6.18;;
29732;SDS011;16643;43.158;25.302;2023-08-17T01:01:10;8.27;;;5.65;;
29732;SDS011;16643;43.158;25.302;2023-08-17T01:03:35;9.85;;;5.95;;
29732;SDS011;16643;43.158;25.302;2023-08-17T01:06:01;7.95;;;5.43;;
29732;SDS011;16643;43.158;25.302;2023-08-17T01:08:28;8.50;;;5.47;;
29732;SDS011;16643;43.158;25.302;2023-08-17T01:13:47;11.50;;;6.18;;
29732;SDS011;16643;43.158;25.302;2023-08-17T01:16:25;7.28;;;6.00;;
29732;SDS011;16643;43.158;25.302;2023-08-17T01:18:55;10.27;;;5.65;;
29732;SDS011;16643;43.158;25.302;2023-08-17T01:21:24;11.07;;;5.70;;
29732;SDS011;16643;43.158;25.302;2023-08-17T01:23:57;7.88;;;5.03;;
29732;SDS011;16643;43.158;25.302;2023-08-17T01:26:23;8.93;;;6.18;;
29732;SDS011;16643;43.158;25.302;2023-08-17T01:28:49;11.00;;;5.45;;
29732;SDS011;16643;43.158;25.302;2023-08-17T01:31:18;9.38;;;5.70;;
29732;SDS011;16643;43.158;25.302;2023-08-17T01:33:56;10.40;;;6.13;;
29732;SDS011;16643;43.158;25.302;2023-08-17T01:36:30;13.95;;;6.32;;
29732;SDS011;16643;43.158;25.302;2023-08-17T01:38:59;11.35;;;6.05;;
29732;SDS011;16643;43.158;25.302;2023-08-17T01:41:26;8.73;;;5.90;;
29732;SDS011;16643;43.158;25.302;2023-08-17T01:43:53;10.10;;;6.40;;
29732;SDS011;16643;43.158;25.302;2023-08-17T01:46:20;8.88;;;5.43;;
29732;SDS011;16643;43.158;25.302;2023-08-17T01:48:46;9.52;;;5.50;;
29732;SDS011;16643;43.158;25.302;2023-08-17T01:51:16;10.40;;;6.72;;
29732;SDS011;16643;43.158;25.302;2023-08-17T01:53:47;14.68;;;6.38;;
29732;SDS011;16643;43.158;25.302;2023-08-17T01:56:14;16.08;;;6.13;;
29732;SDS011;16643;43.158;25.302;2023-08-17T01:58:39;8.60;;;5.65;;
29732;SDS011;16643;43.158;25.302;2023-08-17T02:01:05;8.25;;;5.85;;
29732;SDS011;16643;43.158;25.302;2023-08-17T02:03:31;7.63;;;5.55;;
29732;SDS011;16643;43.158;25.302;2023-08-17T02:05:57;11.85;;;6.65;;
29732;SDS011;16643;43.158;25.302;2023-08-17T02:08:24;7.75;;;5.60;;
29732;SDS011;16643;43.158;25.302;2023-08-17T02:10:50;7.93;;;5.47;;
29732;SDS011;16643;43.158;25.302;2023-08-17T02:13:15;8.30;;;5.65;;
29732;SDS011;16643;43.158;25.302;2023-08-17T02:15:42;9.30;;;5.40;;
29732;SDS011;16643;43.158;25.302;2023-08-17T02:18:07;8.25;;;5.07;;
29732;SDS011;16643;43.158;25.302;2023-08-17T02:20:33;6.95;;;5.35;;
29732;SDS011;16643;43.158;25.302;2023-08-17T02:22:59;9.48;;;5.90;;
29732;SDS011;16643;43.158;25.302;2023-08-17T02:25:25;10.18;;;5.38;;
29732;SDS011;16643;43.158;25.302;2023-08-17T02:27:52;10.68;;;5.78;;
29732;SDS011;16643;43.158;25.302;2023-08-17T02:30:17;9.55;;;5.68;;
29732;SDS011;16643;43.158;25.302;2023-08-17T02:32:43;11.43;;;5.72;;
29732;SDS011;16643;43.158;25.302;2023-08-17T02:35:09;10.77;;;5.40;;
29732;SDS011;16643;43.158;25.302;2023-08-17T02:37:35;7.38;;;6.13;;
29732;SDS011;16643;43.158;25.302;2023-08-17T02:40:01;11.80;;;6.57;;
29732;SDS011;16643;43.158;25.302;2023-08-17T02:42:28;8.73;;;5.65;;
29732;SDS011;16643;43.158;25.302;2023-08-17T02:44:53;7.30;;;5.97;;
29732;SDS011;16643;43.158;25.302;2023-08-17T02:47:19;11.43;;;5.78;;
29732;SDS011;16643;43.158;25.302;2023-08-17T02:49:44;9.93;;;6.28;;
29732;SDS011;16643;43.158;25.302;2023-08-17T02:52:10;8.63;;;5.85;;
29732;SDS011;16643;43.158;25.302;2023-08-17T02:54:36;9.73;;;6.05;;
29732;SDS011;16643;43.158;25.302;2023-08-17T02:57:01;9.15;;;6.07;;
29732;SDS011;16643;43.158;25.302;2023-08-17T02:59:27;10.05;;;6.05;;
29732;SDS011;16643;43.158;25.302;2023-08-17T03:01:53;10.32;;;6.28;;
29732;SDS011;16643;43.158;25.302;2023-08-17T03:04:19;7.93;;;5.93;;
29732;SDS011;16643;43.158;25.302;2023-08-17T03:06:44;8.75;;;6.03;;
29732;SDS011;16643;43.158;25.302;2023-08-17T03:09:10;9.57;;;6.20;;
29732;SDS011;16643;43.158;25.302;2023-08-17T03:11:36;9.95;;;6.35;;
29732;SDS011;16643;43.158;25.302;2023-08-17T03:14:01;13.25;;;6.47;;
29732;SDS011;16643;43.158;25.302;2023-08-17T03:16:28;10.32;;;6.70;;
29732;SDS011;16643;43.158;25.302;2023-08-17T03:18:55;10.85;;;7.70;;
29732;SDS011;16643;43.158;25.302;2023-08-17T03:21:21;12.77;;;7.30;;
29732;SDS011;16643;43.158;25.302;2023-08-17T03:23:47;9.05;;;6.35;;
29732;SDS011;16643;43.158;25.302;2023-08-17T03:26:13;11.57;;;7.53;;
29732;SDS011;16643;43.158;25.302;2023-08-17T03:28:39;11.90;;;7.05;;
29732;SDS011;16643;43.158;25.302;2023-08-17T03:31:04;8.70;;;6.60;;
29732;SDS011;16643;43.158;25.302;2023-08-17T03:33:32;10.32;;;6.80;;
29732;SDS011;16643;43.158;25.302;2023-08-17T03:35:58;12.85;;;7.20;;
29732;SDS011;16643;43.158;25.302;2023-08-17T03:38:23;11.55;;;6.30;;
29732;SDS011;16643;43.158;25.302;2023-08-17T03:40:49;12.80;;;6.88;;
29732;SDS011;16643;43.158;25.302;2023-08-17T03:43:14;12.32;;;6.72;;
29732;SDS011;16643;43.158;25.302;2023-08-17T03:45:40;15.02;;;6.75;;
29732;SDS011;16643;43.158;25.302;2023-08-17T03:48:08;14.85;;;7.40;;
29732;SDS011;16643;43.158;25.302;2023-08-17T03:50:34;19.27;;;7.32;;
29732;SDS011;16643;43.158;25.302;2023-08-17T03:53:00;14.20;;;7.25;;
29732;SDS011;16643;43.158;25.302;2023-08-17T03:55:25;12.45;;;7.55;;
29732;SDS011;16643;43.158;25.302;2023-08-17T03:57:51;12.88;;;6.28;;
29732;SDS011;16643;43.158;25.302;2023-08-17T04:00:17;10.77;;;6.53;;
29732;SDS011;16643;43.158;25.302;2023-08-17T04:02:43;10.45;;;6.20;;
29732;SDS011;16643;43.158;25.302;2023-08-17T04:05:09;11.63;;;7.38;;
29732;SDS011;16643;43.158;25.302;2023-08-17T04:07:36;8.90;;;6.47;;
29732;SDS011;16643;43.158;25.302;2023-08-17T04:10:03;8.35;;;5.72;;
29732;SDS011;16643;43.158;25.302;2023-08-17T04:12:30;14.45;;;7.28;;
29732;SDS011;16643;43.158;25.302;2023-08-17T04:14:56;13.02;;;6.95;;
29732;SDS011;16643;43.158;25.302;2023-08-17T04:17:22;10.25;;;7.78;;
29732;SDS011;16643;43.158;25.302;2023-08-17T04:19:48;16.73;;;11.35;;
29732;SDS011;16643;43.158;25.302;2023-08-17T04:22:13;18.52;;;10.90;;
29732;SDS011;16643;43.158;25.302;2023-08-17T04:24:39;15.93;;;11.68;;
29732;SDS011;16643;43.158;25.302;2023-08-17T04:27:05;18.10;;;11.82;;
29732;SDS011;16643;43.158;25.302;2023-08-17T04:29:31;44.03;;;26.10;;
29732;SDS011;16643;43.158;25.302;2023-08-17T04:31:57;30.13;;;17.88;;
29732;SDS011;16643;43.158;25.302;2023-08-17T04:34:24;30.73;;;18.95;;
29732;SDS011;16643;43.158;25.302;2023-08-17T04:36:51;116.65;;;64.43;;
29732;SDS011;16643;43.158;25.302;2023-08-17T04:39:16;41.40;;;24.05;;
29732;SDS011;16643;43.158;25.302;2023-08-17T04:41:42;47.92;;;27.10;;
29732;SDS011;16643;43.158;25.302;2023-08-17T04:44:08;28.10;;;15.98;;
29732;SDS011;16643;43.158;25.302;2023-08-17T04:46:35;31.67;;;18.08;;
29732;SDS011;16643;43.158;25.302;2023-08-17T04:49:00;23.67;;;12.10;;
29732;SDS011;16643;43.158;25.302;2023-08-17T04:51:26;17.83;;;10.60;;
29732;SDS011;16643;43.158;25.302;2023-08-17T04:53:52;18.75;;;10.05;;
29732;SDS011;16643;43.158;25.302;2023-08-17T04:56:18;12.52;;;9.15;;
29732;SDS011;16643;43.158;25.302;2023-08-17T04:58:45;15.53;;;10.47;;
29732;SDS011;16643;43.158;25.302;2023-08-17T05:01:10;14.05;;;10.80;;
29732;SDS011;16643;43.158;25.302;2023-08-17T05:03:36;15.48;;;8.73;;
29732;SDS011;16643;43.158;25.302;2023-08-17T05:06:02;16.75;;;9.05;;
29732;SDS011;16643;43.158;25.302;2023-08-17T05:08:29;10.57;;;8.45;;
29732;SDS011;16643;43.158;25.302;2023-08-17T05:10:55;10.90;;;7.13;;
29732;SDS011;16643;43.158;25.302;2023-08-17T05:13:21;14.50;;;8.05;;
29732;SDS011;16643;43.158;25.302;2023-08-17T05:15:48;14.17;;;8.13;;
29732;SDS011;16643;43.158;25.302;2023-08-17T05:18:13;12.27;;;7.43;;
29732;SDS011;16643;43.158;25.302;2023-08-17T05:20:39;15.45;;;7.68;;
29732;SDS011;16643;43.158;25.302;2023-08-17T05:23:07;7.80;;;6.25;;
29732;SDS011;16643;43.158;25.302;2023-08-17T05:25:33;16.80;;;6.97;;
29732;SDS011;16643;43.158;25.302;2023-08-17T05:27:58;9.23;;;6.30;;
29732;SDS011;16643;43.158;25.302;2023-08-17T05:30:24;10.13;;;6.05;;
29732;SDS011;16643;43.158;25.302;2023-08-17T05:32:50;8.77;;;6.13;;
29732;SDS011;16643;43.158;25.302;2023-08-17T05:35:15;11.07;;;6.53;;
29732;SDS011;16643;43.158;25.302;2023-08-17T05:37:41;9.77;;;7.07;;
29732;SDS011;16643;43.158;25.302;2023-08-17T05:40:07;13.38;;;6.97;;
29732;SDS011;16643;43.158;25.302;2023-08-17T05:42:34;13.57;;;7.72;;
29732;SDS011;16643;43.158;25.302;2023-08-17T05:44:59;11.10;;;7.95;;
29732;SDS011;16643;43.158;25.302;2023-08-17T05:47:25;10.20;;;6.13;;
29732;SDS011;16643;43.158;25.302;2023-08-17T05:49:51;8.30;;;6.22;;
29732;SDS011;16643;43.158;25.302;2023-08-17T05:52:18;8.97;;;6.47;;
29732;SDS011;16643;43.158;25.302;2023-08-17T05:54:43;11.13;;;5.57;;
29732;SDS011;16643;43.158;25.302;2023-08-17T05:57:09;9.82;;;6.43;;
29732;SDS011;16643;43.158;25.302;2023-08-17T05:59:35;9.27;;;6.47;;
29732;SDS011;16643;43.158;25.302;2023-08-17T06:02:01;7.32;;;5.55;;
29732;SDS011;16643;43.158;25.302;2023-08-17T06:04:27;10.25;;;5.03;;
29732;SDS011;16643;43.158;25.302;2023-08-17T06:06:53;13.65;;;6.97;;
29732;SDS011;16643;43.158;25.302;2023-08-17T06:09:18;9.18;;;5.72;;
29732;SDS011;16643;43.158;25.302;2023-08-17T06:11:44;9.82;;;6.25;;
29732;SDS011;16643;43.158;25.302;2023-08-17T06:14:10;8.57;;;6.18;;
29732;SDS011;16643;43.158;25.302;2023-08-17T06:16:35;8.60;;;5.75;;
29732;SDS011;16643;43.158;25.302;2023-08-17T06:19:01;10.48;;;6.05;;
29732;SDS011;16643;43.158;25.302;2023-08-17T06:21:27;12.00;;;5.97;;
29732;SDS011;16643;43.158;25.302;2023-08-17T06:23:53;8.00;;;5.43;;
29732;SDS011;16643;43.158;25.302;2023-08-17T06:26:19;8.80;;;5.97;;
29732;SDS011;16643;43.158;25.302;2023-08-17T06:28:44;8.18;;;5.30;;
29732;SDS011;16643;43.158;25.302;2023-08-17T06:31:10;8.30;;;5.90;;
29732;SDS011;16643;43.158;25.302;2023-08-17T06:33:35;10.07;;;5.72;;
29732;SDS011;16643;43.158;25.302;2023-08-17T06:36:01;6.22;;;5.35;;
29732;SDS011;16643;43.158;25.302;2023-08-17T06:38:27;8.85;;;5.22;;
29732;SDS011;16643;43.158;25.302;2023-08-17T06:40:53;13.27;;;5.85;;
29732;SDS011;16643;43.158;25.302;2023-08-17T06:43:18;7.80;;;6.18;;
29732;SDS011;16643;43.158;25.302;2023-08-17T06:45:44;8.15;;;5.65;;
29732;SDS011;16643;43.158;25.302;2023-08-17T06:48:10;9.05;;;5.38;;
29732;SDS011;16643;43.158;25.302;2023-08-17T06:50:35;7.60;;;6.03;;
29732;SDS011;16643;43.158;25.302;2023-08-17T06:53:01;9.55;;;5.70;;
29732;SDS011;16643;43.158;25.302;2023-08-17T06:55:27;9.23;;;6.43;;
29732;SDS011;16643;43.158;25.302;2023-08-17T06:57:54;9.82;;;6.60;;
29732;SDS011;16643;43.158;25.302;2023-08-17T07:00:20;11.50;;;5.85;;
29732;SDS011;16643;43.158;25.302;2023-08-17T07:02:49;10.32;;;6.53;;
29732;SDS011;16643;43.158;25.302;2023-08-17T07:05:16;9.10;;;6.20;;
29732;SDS011;16643;43.158;25.302;2023-08-17T07:07:41;7.57;;;6.15;;
29732;SDS011;16643;43.158;25.302;2023-08-17T07:10:08;9.82;;;6.03;;
29732;SDS011;16643;43.158;25.302;2023-08-17T07:15:02;8.10;;;6.10;;
29732;SDS011;16643;43.158;25.302;2023-08-17T07:17:28;10.35;;;6.03;;
29732;SDS011;16643;43.158;25.302;2023-08-17T07:19:54;9.90;;;6.82;;
29732;SDS011;16643;43.158;25.302;2023-08-17T07:22:19;10.05;;;5.75;;
29732;SDS011;16643;43.158;25.302;2023-08-17T07:24:45;14.90;;;7.22;;
29732;SDS011;16643;43.158;25.302;2023-08-17T07:27:11;7.00;;;5.65;;
29732;SDS011;16643;43.158;25.302;2023-08-17T07:29:36;8.27;;;5.80;;
29732;SDS011;16643;43.158;25.302;2023-08-17T07:32:02;10.13;;;6.47;;
29732;SDS011;16643;43.158;25.302;2023-08-17T07:34:28;7.80;;;5.38;;
29732;SDS011;16643;43.158;25.302;2023-08-17T07:36:56;8.60;;;5.72;;
29732;SDS011;16643;43.158;25.302;2023-08-17T07:39:22;14.52;;;6.18;;
29732;SDS011;16643;43.158;25.302;2023-08-17T07:41:48;8.02;;;5.85;;
29732;SDS011;16643;43.158;25.302;2023-08-17T07:44:13;11.40;;;5.63;;
29732;SDS011;16643;43.158;25.302;2023-08-17T07:46:39;9.40;;;5.32;;
29732;SDS011;16643;43.158;25.302;2023-08-17T07:49:05;6.13;;;5.53;;
29732;SDS011;16643;43.158;25.302;2023-08-17T07:51:31;9.05;;;6.10;;
29732;SDS011;16643;43.158;25.302;2023-08-17T07:53:59;7.72;;;5.75;;
29732;SDS011;16643;43.158;25.302;2023-08-17T07:56:25;7.82;;;5.70;;
29732;SDS011;16643;43.158;25.302;2023-08-17T07:58:52;6.60;;;4.97;;
29732;SDS011;16643;43.158;25.302;2023-08-17T08:01:19;7.05;;;5.32;;
29732;SDS011;16643;43.158;25.302;2023-08-17T08:03:45;8.93;;;5.25;;
29732;SDS011;16643;43.158;25.302;2023-08-17T08:06:10;8.48;;;5.25;;
29732;SDS011;16643;43.158;25.302;2023-08-17T08:08:36;8.90;;;5.53;;
29732;SDS011;16643;43.158;25.302;2023-08-17T08:11:01;7.90;;;4.93;;
29732;SDS011;16643;43.158;25.302;2023-08-17T08:13:31;6.20;;;4.25;;
29732;SDS011;16643;43.158;25.302;2023-08-17T08:16:00;8.07;;;4.97;;
29732;SDS011;16643;43.158;25.302;2023-08-17T08:18:26;6.50;;;5.03;;
29732;SDS011;16643;43.158;25.302;2023-08-17T08:20:52;9.93;;;4.85;;
29732;SDS011;16643;43.158;25.302;2023-08-17T08:23:18;7.78;;;4.68;;
29732;SDS011;16643;43.158;25.302;2023-08-17T08:25:44;7.15;;;4.63;;
29732;SDS011;16643;43.158;25.302;2023-08-17T08:28:09;8.73;;;5.03;;
29732;SDS011;16643;43.158;25.302;2023-08-17T08:30:35;15.00;;;5.85;;
29732;SDS011;16643;43.158;25.302;2023-08-17T08:33:01;11.23;;;4.90;;
29732;SDS011;16643;43.158;25.302;2023-08-17T08:35:28;10.50;;;5.00;;
29732;SDS011;16643;43.158;25.302;2023-08-17T08:37:54;9.48;;;4.60;;
29732;SDS011;16643;43.158;25.302;2023-08-17T08:40:29;10.45;;;5.22;;
29732;SDS011;16643;43.158;25.302;2023-08-17T08:42:58;7.22;;;4.38;;
29732;SDS011;16643;43.158;25.302;2023-08-17T08:45:24;6.70;;;4.78;;
29732;SDS011;16643;43.158;25.302;2023-08-17T08:47:56;6.45;;;4.82;;
29732;SDS011;16643;43.158;25.302;2023-08-17T08:50:22;9.90;;;4.55;;
29732;SDS011;16643;43.158;25.302;2023-08-17T08:52:58;8.43;;;5.43;;
29732;SDS011;16643;43.158;25.302;2023-08-17T08:55:26;7.78;;;4.63;;
29732;SDS011;16643;43.158;25.302;2023-08-17T08:57:54;6.75;;;4.30;;
29732;SDS011;16643;43.158;25.302;2023-08-17T09:00:24;6.18;;;4.75;;
29732;SDS011;16643;43.158;25.302;2023-08-17T09:02:52;6.07;;;4.47;;
29732;SDS011;16643;43.158;25.302;2023-08-17T09:05:19;9.15;;;4.95;;
29732;SDS011;16643;43.158;25.302;2023-08-17T09:07:48;6.72;;;4.65;;
29732;SDS011;16643;43.158;25.302;2023-08-17T09:10:15;8.88;;;4.70;;
29732;SDS011;16643;43.158;25.302;2023-08-17T09:12:42;6.72;;;4.82;;
29732;SDS011;16643;43.158;25.302;2023-08-17T09:15:10;10.52;;;5.60;;
29732;SDS011;16643;43.158;25.302;2023-08-17T09:17:37;7.60;;;4.45;;
29732;SDS011;16643;43.158;25.302;2023-08-17T09:20:04;6.63;;;4.82;;
29732;SDS011;16643;43.158;25.302;2023-08-17T09:22:39;8.25;;;4.47;;
29732;SDS011;16643;43.158;25.302;2023-08-17T09:25:06;7.65;;;5.50;;
29732;SDS011;16643;43.158;25.302;2023-08-17T09:27:32;6.18;;;4.38;;
29732;SDS011;16643;43.158;25.302;2023-08-17T09:30:02;7.40;;;4.15;;
29732;SDS011;16643;43.158;25.302;2023-08-17T09:32:32;9.48;;;5.65;;
29732;SDS011;16643;43.158;25.302;2023-08-17T09:35:02;6.30;;;5.18;;
29732;SDS011;16643;43.158;25.302;2023-08-17T09:37:29;7.38;;;4.45;;
29732;SDS011;16643;43.158;25.302;2023-08-17T09:39:55;6.32;;;4.75;;
29732;SDS011;16643;43.158;25.302;2023-08-17T09:42:21;7.78;;;4.75;;
29732;SDS011;16643;43.158;25.302;2023-08-17T09:44:51;5.68;;;4.80;;
29732;SDS011;16643;43.158;25.302;2023-08-17T09:47:18;6.32;;;4.32;;
29732;SDS011;16643;43.158;25.302;2023-08-17T09:49:53;12.02;;;6.20;;
29732;SDS011;16643;43.158;25.302;2023-08-17T09:52:20;5.88;;;4.80;;
29732;SDS011;16643;43.158;25.302;2023-08-17T09:54:47;7.18;;;4.07;;
29732;SDS011;16643;43.158;25.302;2023-08-17T09:57:13;8.57;;;4.95;;
29732;SDS011;16643;43.158;25.302;2023-08-17T09:59:39;7.43;;;5.10;;
29732;SDS011;16643;43.158;25.302;2023-08-17T10:02:16;8.15;;;4.82;;
29732;SDS011;16643;43.158;25.302;2023-08-17T10:04:49;8.93;;;5.38;;
29732;SDS011;16643;43.158;25.302;2023-08-17T10:07:20;6.53;;;4.70;;
29732;SDS011;16643;43.158;25.302;2023-08-17T10:13:09;9.10;;;4.95;;
29732;SDS011;16643;43.158;25.302;2023-08-17T10:18:08;9.68;;;4.80;;
29732;SDS011;16643;43.158;25.302;2023-08-17T10:20:40;7.18;;;5.15;;
29732;SDS011;16643;43.158;25.302;2023-08-17T10:23:19;6.15;;;5.38;;
29732;SDS011;16643;43.158;25.302;2023-08-17T10:25:49;5.78;;;4.90;;
29732;SDS011;16643;43.158;25.302;2023-08-17T10:28:17;8.13;;;4.95;;
29732;SDS011;16643;43.158;25.302;2023-08-17T10:30:44;6.93;;;4.72;;
29732;SDS011;16643;43.158;25.302;2023-08-17T10:33:10;6.40;;;4.83;;
29732;SDS011;16643;43.158;25.302;2023-08-17T10:35:37;10.97;;;5.13;;
29732;SDS011;16643;43.158;25.302;2023-08-17T10:38:04;8.25;;;4.90;;
29732;SDS011;16643;43.158;25.302;2023-08-17T10:40:37;6.75;;;5.05;;
29732;SDS011;16643;43.158;25.302;2023-08-17T10:43:06;8.27;;;5.47;;
29732;SDS011;16643;43.158;25.302;2023-08-17T10:45:36;7.95;;;5.43;;
29732;SDS011;16643;43.158;25.302;2023-08-17T10:50:32;8.13;;;5.20;;
29732;SDS011;16643;43.158;25.302;2023-08-17T10:55:39;8.75;;;4.93;;
29732;SDS011;16643;43.158;25.302;2023-08-17T10:58:17;6.28;;;5.25;;
29732;SDS011;16643;43.158;25.302;2023-08-17T11:00:43;8.45;;;4.50;;
29732;SDS011;16643;43.158;25.302;2023-08-17T11:03:10;8.87;;;4.57;;
29732;SDS011;16643;43.158;25.302;2023-08-17T11:08:20;7.43;;;5.18;;
29732;SDS011;16643;43.158;25.302;2023-08-17T11:11:07;8.65;;;5.30;;
29732;SDS011;16643;43.158;25.302;2023-08-17T11:13:36;9.27;;;5.40;;
29732;SDS011;16643;43.158;25.302;2023-08-17T11:16:04;7.70;;;5.30;;
29732;SDS011;16643;43.158;25.302;2023-08-17T11:18:31;7.65;;;5.30;;
29732;SDS011;16643;43.158;25.302;2023-08-17T11:20:58;8.57;;;5.45;;
29732;SDS011;16643;43.158;25.302;2023-08-17T11:23:24;10.77;;;5.32;;
29732;SDS011;16643;43.158;25.302;2023-08-17T11:25:54;6.55;;;5.20;;
29732;SDS011;16643;43.158;25.302;2023-08-17T11:28:19;8.73;;;5.20;;
29732;SDS011;16643;43.158;25.302;2023-08-17T11:33:21;7.65;;;4.63;;
29732;SDS011;16643;43.158;25.302;2023-08-17T11:35:47;7.53;;;5.47;;
29732;SDS011;16643;43.158;25.302;2023-08-17T11:38:15;8.75;;;5.32;;
29732;SDS011;16643;43.158;25.302;2023-08-17T11:40:40;7.47;;;5.20;;
29732;SDS011;16643;43.158;25.302;2023-08-17T11:43:06;6.25;;;4.95;;
29732;SDS011;16643;43.158;25.302;2023-08-17T11:45:32;9.98;;;5.53;;
29732;SDS011;16643;43.158;25.302;2023-08-17T11:47:58;9.33;;;6.23;;
29732;SDS011;16643;43.158;25.302;2023-08-17T11:50:24;9.25;;;5.38;;
29732;SDS011;16643;43.158;25.302;2023-08-17T11:52:51;6.90;;;5.25;;
29732;SDS011;16643;43.158;25.302;2023-08-17T11:55:18;9.93;;;5.80;;
29732;SDS011;16643;43.158;25.302;2023-08-17T11:57:45;9.95;;;5.22;;
29732;SDS011;16643;43.158;25.302;2023-08-17T12:00:16;7.43;;;5.47;;
29732;SDS011;16643;43.158;25.302;2023-08-17T12:02:48;7.78;;;5.40;;
29732;SDS011;16643;43.158;25.302;2023-08-17T12:05:24;11.68;;;5.90;;
29732;SDS011;16643;43.158;25.302;2023-08-17T12:07:52;7.45;;;5.32;;
29732;SDS011;16643;43.158;25.302;2023-08-17T12:10:19;12.65;;;5.70;;
29732;SDS011;16643;43.158;25.302;2023-08-17T12:12:49;9.80;;;5.80;;
29732;SDS011;16643;43.158;25.302;2023-08-17T12:15:18;7.68;;;5.45;;
29732;SDS011;16643;43.158;25.302;2023-08-17T12:17:48;8.90;;;5.53;;
29732;SDS011;16643;43.158;25.302;2023-08-17T12:20:19;8.45;;;5.60;;
29732;SDS011;16643;43.158;25.302;2023-08-17T12:22:46;7.35;;;4.68;;
29732;SDS011;16643;43.158;25.302;2023-08-17T12:25:13;7.57;;;5.85;;
29732;SDS011;16643;43.158;25.302;2023-08-17T12:27:39;6.70;;;5.20;;
29732;SDS011;16643;43.158;25.302;2023-08-17T12:30:11;9.70;;;5.28;;
29732;SDS011;16643;43.158;25.302;2023-08-17T12:32:38;6.32;;;5.50;;
29732;SDS011;16643;43.158;25.302;2023-08-17T12:35:04;6.57;;;5.25;;
29732;SDS011;16643;43.158;25.302;2023-08-17T12:37:30;9.30;;;5.78;;
29732;SDS011;16643;43.158;25.302;2023-08-17T12:39:55;6.03;;;5.20;;
29732;SDS011;16643;43.158;25.302;2023-08-17T12:42:21;13.70;;;5.95;;
29732;SDS011;16643;43.158;25.302;2023-08-17T12:44:47;7.88;;;5.72;;
29732;SDS011;16643;43.158;25.302;2023-08-17T12:47:13;8.90;;;5.60;;
29732;SDS011;16643;43.158;25.302;2023-08-17T12:49:39;6.70;;;5.72;;
29732;SDS011;16643;43.158;25.302;2023-08-17T12:52:05;9.32;;;5.28;;
29732;SDS011;16643;43.158;25.302;2023-08-17T12:54:30;8.30;;;6.22;;
29732;SDS011;16643;43.158;25.302;2023-08-17T12:56:56;7.88;;;6.22;;
29732;SDS011;16643;43.158;25.302;2023-08-17T12:59:22;6.53;;;5.82;;
29732;SDS011;16643;43.158;25.302;2023-08-17T13:01:47;7.50;;;5.60;;
29732;SDS011;16643;43.158;25.302;2023-08-17T13:04:13;8.05;;;5.43;;
29732;SDS011;16643;43.158;25.302;2023-08-17T13:06:39;7.00;;;5.70;;
29732;SDS011;16643;43.158;25.302;2023-08-17T13:09:04;9.40;;;5.63;;
29732;SDS011;16643;43.158;25.302;2023-08-17T13:11:30;7.43;;;5.50;;
29732;SDS011;16643;43.158;25.302;2023-08-17T13:13:57;8.88;;;5.40;;
29732;SDS011;16643;43.158;25.302;2023-08-17T13:16:23;5.53;;;4.93;;
29732;SDS011;16643;43.158;25.302;2023-08-17T13:18:48;9.13;;;5.50;;
29732;SDS011;16643;43.158;25.302;2023-08-17T13:21:14;7.45;;;5.18;;
29732;SDS011;16643;43.158;25.302;2023-08-17T13:23:43;7.70;;;5.07;;
29732;SDS011;16643;43.158;25.302;2023-08-17T13:26:08;6.75;;;5.47;;
29732;SDS011;16643;43.158;25.302;2023-08-17T13:28:34;10.52;;;5.10;;
29732;SDS011;16643;43.158;25.302;2023-08-17T13:31:00;11.07;;;6.03;;
29732;SDS011;16643;43.158;25.302;2023-08-17T13:33:25;8.43;;;5.03;;
29732;SDS011;16643;43.158;25.302;2023-08-17T13:35:51;7.38;;;5.78;;
29732;SDS011;16643;43.158;25.302;2023-08-17T13:38:16;7.30;;;5.25;;
29732;SDS011;16643;43.158;25.302;2023-08-17T13:40:42;8.05;;;5.65;;
29732;SDS011;16643;43.158;25.302;2023-08-17T13:43:08;7.28;;;5.50;;
29732;SDS011;16643;43.158;25.302;2023-08-17T13:45:40;10.15;;;5.25;;
29732;SDS011;16643;43.158;25.302;2023-08-17T13:48:06;9.57;;;5.65;;
29732;SDS011;16643;43.158;25.302;2023-08-17T13:50:33;8.85;;;5.32;;
29732;SDS011;16643;43.158;25.302;2023-08-17T13:52:59;5.90;;;5.35;;
29732;SDS011;16643;43.158;25.302;2023-08-17T13:55:26;7.25;;;5.13;;
29732;SDS011;16643;43.158;25.302;2023-08-17T13:57:53;8.38;;;5.75;;
29732;SDS011;16643;43.158;25.302;2023-08-17T14:02:46;6.78;;;5.28;;
29732;SDS011;16643;43.158;25.302;2023-08-17T14:05:11;8.23;;;5.28;;
29732;SDS011;16643;43.158;25.302;2023-08-17T14:07:37;8.35;;;5.57;;
29732;SDS011;16643;43.158;25.302;2023-08-17T14:10:02;8.90;;;5.13;;
29732;SDS011;16643;43.158;25.302;2023-08-17T14:12:29;7.22;;;5.30;;
29732;SDS011;16643;43.158;25.302;2023-08-17T14:14:55;9.18;;;5.70;;
29732;SDS011;16643;43.158;25.302;2023-08-17T14:17:21;10.30;;;5.65;;
29732;SDS011;16643;43.158;25.302;2023-08-17T14:19:46;7.82;;;5.35;;
29732;SDS011;16643;43.158;25.302;2023-08-17T14:22:12;6.30;;;5.35;;
29732;SDS011;16643;43.158;25.302;2023-08-17T14:24:38;9.35;;;5.47;;
29732;SDS011;16643;43.158;25.302;2023-08-17T14:27:03;7.18;;;5.55;;
29732;SDS011;16643;43.158;25.302;2023-08-17T14:29:29;8.15;;;5.57;;
29732;SDS011;16643;43.158;25.302;2023-08-17T14:31:55;8.13;;;5.47;;
29732;SDS011;16643;43.158;25.302;2023-08-17T14:34:20;7.85;;;5.47;;
29732;SDS011;16643;43.158;25.302;2023-08-17T14:36:46;7.65;;;5.93;;
29732;SDS011;16643;43.158;25.302;2023-08-17T14:39:13;6.60;;;5.35;;
29732;SDS011;16643;43.158;25.302;2023-08-17T14:41:38;7.50;;;5.80;;
29732;SDS011;16643;43.158;25.302;2023-08-17T14:44:04;9.20;;;5.28;;
29732;SDS011;16643;43.158;25.302;2023-08-17T14:46:30;6.20;;;4.72;;
29732;SDS011;16643;43.158;25.302;2023-08-17T14:48:56;6.65;;;5.00;;